createdAt,value
2018-11-13T00:00:14.965Z,14.01
2018-11-13T00:02:42.991Z,14.02
2018-11-13T00:05:11.067Z,14.01
2018-11-13T00:07:39.119Z,14.01
2018-11-13T00:10:08.224Z,14.01
2018-11-13T00:12:36.144Z,14.03
2018-11-13T00:15:04.300Z,14.04
2018-11-13T00:17:32.269Z,14.05
2018-11-13T00:20:00.223Z,14.03
2018-11-13T00:22:28.307Z,14.00
2018-11-13T00:24:56.232Z,14.05
2018-11-13T00:27:24.184Z,14.01
2018-11-13T00:29:52.151Z,14.00
2018-11-13T00:32:20.079Z,14.04
2018-11-13T00:34:48.024Z,14.09
2018-11-13T00:37:15.963Z,14.00
2018-11-13T00:39:43.896Z,13.99
2018-11-13T00:42:11.895Z,14.01
2018-11-13T00:44:39.827Z,13.98
2018-11-13T00:47:07.739Z,14.02
2018-11-13T00:49:35.668Z,14.00
2018-11-13T00:52:03.576Z,14.00
2018-11-13T00:54:31.528Z,13.96
2018-11-13T00:56:59.445Z,13.90
2018-11-13T00:59:27.424Z,13.92
2018-11-13T01:01:55.295Z,13.95
2018-11-13T01:04:23.207Z,13.88
2018-11-13T01:06:51.152Z,13.85
2018-11-13T01:09:19.081Z,13.88
2018-11-13T01:11:47.067Z,13.85
2018-11-13T01:14:14.924Z,13.88
2018-11-13T01:16:42.859Z,13.91
2018-11-13T01:19:10.764Z,13.86
2018-11-13T01:21:38.691Z,13.83
2018-11-13T01:24:06.716Z,13.87
2018-11-13T01:26:34.674Z,13.89
2018-11-13T01:29:02.583Z,13.92
2018-11-13T01:31:30.498Z,13.86
2018-11-13T01:33:58.466Z,13.94
2018-11-13T01:36:26.403Z,14.00
2018-11-13T01:38:54.355Z,14.00
2018-11-13T01:41:22.268Z,14.03
2018-11-13T01:43:50.201Z,14.05
2018-11-13T01:46:18.151Z,14.00
2018-11-13T01:48:46.059Z,14.00
2018-11-13T01:51:13.993Z,13.96
2018-11-13T01:53:41.923Z,14.00
2018-11-13T01:56:09.868Z,14.00
2018-11-13T01:58:37.808Z,14.00
2018-11-13T02:01:05.775Z,14.03
2018-11-13T02:03:33.743Z,14.07
2018-11-13T02:06:01.688Z,14.10
2018-11-13T02:08:29.644Z,14.07
2018-11-13T02:10:57.603Z,14.07
2018-11-13T02:13:25.558Z,14.08
2018-11-13T02:15:53.491Z,14.03
2018-11-13T02:18:21.471Z,14.04
2018-11-13T02:20:49.432Z,14.03
2018-11-13T02:23:17.423Z,14.06
2018-11-13T02:25:45.391Z,14.08
2018-11-13T02:28:13.363Z,14.04
2018-11-13T02:30:41.332Z,13.97
2018-11-13T02:33:09.296Z,14.03
2018-11-13T02:35:37.378Z,14.04
2018-11-13T02:38:05.276Z,14.04
2018-11-13T02:40:33.303Z,14.03
2018-11-13T02:43:01.252Z,14.00
2018-11-13T02:45:29.258Z,14.02
2018-11-13T02:47:57.228Z,14.00
2018-11-13T02:50:25.179Z,13.97
2018-11-13T02:52:53.129Z,13.93
2018-11-13T02:55:21.079Z,13.91
2018-11-13T02:57:49.042Z,13.91
2018-11-13T03:00:18.478Z,13.90
2018-11-13T03:02:46.418Z,13.88
2018-11-13T03:05:15.552Z,13.87
2018-11-13T03:07:43.486Z,13.88
2018-11-13T03:10:12.908Z,13.91
2018-11-13T03:12:40.865Z,13.82
2018-11-13T03:15:10.448Z,13.72
2018-11-13T03:17:38.451Z,13.81
2018-11-13T03:20:08.672Z,13.84
2018-11-13T03:22:36.618Z,13.84
2018-11-13T03:25:06.099Z,13.78
2018-11-13T03:27:34.043Z,13.77
2018-11-13T03:30:02.013Z,13.79
2018-11-13T03:32:29.955Z,13.76
2018-11-13T03:34:57.923Z,13.75
2018-11-13T03:37:25.944Z,13.78
2018-11-13T03:39:53.888Z,13.82
2018-11-13T03:42:21.863Z,13.81
2018-11-13T03:44:49.776Z,13.83
2018-11-13T03:47:17.691Z,13.84
2018-11-13T03:49:45.652Z,13.84
2018-11-13T03:52:13.573Z,13.82
2018-11-13T03:54:41.504Z,13.77
2018-11-13T03:57:09.416Z,13.73
2018-11-13T03:59:37.363Z,13.75
2018-11-13T04:02:05.301Z,13.73
2018-11-13T04:04:33.215Z,13.74
2018-11-13T04:07:01.164Z,13.74
2018-11-13T04:09:29.083Z,13.71
2018-11-13T04:11:56.995Z,13.64
2018-11-13T04:14:24.935Z,13.71
2018-11-13T04:16:52.855Z,13.74
2018-11-13T04:19:20.785Z,13.76
2018-11-13T04:21:59.715Z,13.73
2018-11-13T04:24:27.643Z,13.69
2018-11-13T04:26:55.607Z,13.65
2018-11-13T04:29:23.488Z,13.61
2018-11-13T04:31:51.416Z,13.60
2018-11-13T04:34:19.376Z,13.62
2018-11-13T04:36:47.316Z,13.62
2018-11-13T04:39:15.231Z,13.66
2018-11-13T04:41:43.171Z,13.67
2018-11-13T04:44:11.088Z,13.69
2018-11-13T04:46:39.016Z,13.69
2018-11-13T04:49:06.979Z,13.70
2018-11-13T04:51:34.915Z,13.67
2018-11-13T04:54:02.837Z,13.68
2018-11-13T04:56:30.774Z,13.70
2018-11-13T04:58:58.731Z,13.70
2018-11-13T05:01:26.671Z,13.69
2018-11-13T05:03:54.579Z,13.66
2018-11-13T05:06:22.516Z,13.66
2018-11-13T05:08:50.441Z,13.66
2018-11-13T05:11:18.384Z,13.73
2018-11-13T05:13:46.298Z,13.76
2018-11-13T05:16:14.229Z,13.73
2018-11-13T05:18:42.135Z,13.64
2018-11-13T05:21:10.129Z,13.66
2018-11-13T05:23:38.036Z,13.63
2018-11-13T05:26:05.976Z,13.69
2018-11-13T05:28:33.892Z,13.70
2018-11-13T05:31:01.857Z,13.72
2018-11-13T05:33:29.771Z,13.70
2018-11-13T05:35:57.719Z,13.72
2018-11-13T05:38:25.672Z,13.74
2018-11-13T05:40:53.594Z,13.75
2018-11-13T05:43:21.539Z,13.85
2018-11-13T05:45:49.484Z,13.79
2018-11-13T05:48:17.409Z,13.81
2018-11-13T05:50:45.323Z,13.82
2018-11-13T05:53:13.248Z,13.85
2018-11-13T05:55:41.175Z,13.97
2018-11-13T05:58:09.114Z,13.89
2018-11-13T06:00:37.047Z,13.81
2018-11-13T06:03:05.118Z,13.88
2018-11-13T06:05:33.459Z,13.83
2018-11-13T06:08:01.526Z,13.77
2018-11-13T06:10:29.467Z,13.77
2018-11-13T06:12:57.388Z,13.81
2018-11-13T06:15:25.327Z,13.85
2018-11-13T06:17:53.252Z,13.86
2018-11-13T06:20:21.176Z,13.89
2018-11-13T06:22:49.154Z,13.91
2018-11-13T06:25:17.737Z,13.93
2018-11-13T06:27:46.840Z,13.94
2018-11-13T06:30:17.261Z,13.93
2018-11-13T06:32:45.744Z,13.96
2018-11-13T06:35:13.667Z,14.00
2018-11-13T06:37:41.632Z,13.97
2018-11-13T06:40:10.156Z,14.00
2018-11-13T06:42:38.507Z,14.02
2018-11-13T06:45:08.295Z,14.02
2018-11-13T06:47:36.239Z,14.03
2018-11-13T06:50:04.221Z,13.98
2018-11-13T06:52:32.132Z,13.99
2018-11-13T06:55:04.215Z,14.02
2018-11-13T06:57:32.674Z,13.92
2018-11-13T07:00:01.175Z,13.86
2018-11-13T07:02:29.147Z,13.77
2018-11-13T07:04:57.180Z,13.73
2018-11-13T07:07:25.119Z,13.70
2018-11-13T07:09:53.061Z,13.68
2018-11-13T07:12:21.029Z,13.67
2018-11-13T07:14:49.083Z,13.65
2018-11-13T07:17:17.239Z,13.60
2018-11-13T07:19:45.218Z,13.55
2018-11-13T07:22:13.136Z,13.50
2018-11-13T07:24:41.073Z,13.44
2018-11-13T07:27:09.008Z,13.36
2018-11-13T07:29:36.931Z,13.31
2018-11-13T07:32:05.114Z,13.25
2018-11-13T07:34:33.167Z,13.27
2018-11-13T07:37:01.015Z,13.24
2018-11-13T07:39:28.937Z,13.23
2018-11-13T07:41:56.852Z,13.26
2018-11-13T07:44:24.828Z,13.26
2018-11-13T07:46:52.762Z,13.37
2018-11-13T07:49:20.655Z,13.66
2018-11-13T07:51:48.596Z,13.94
2018-11-13T07:54:16.520Z,14.17
2018-11-13T07:56:44.436Z,14.42
2018-11-13T07:59:12.431Z,14.93
2018-11-13T08:01:40.380Z,15.51
2018-11-13T08:04:08.303Z,15.78
2018-11-13T08:06:36.289Z,17.30
2018-11-13T08:09:05.989Z,18.05
2018-11-13T08:11:34.047Z,19.19
2018-11-13T08:14:02.302Z,20.21
2018-11-13T08:16:30.277Z,20.84
2018-11-13T08:18:58.203Z,20.60
2018-11-13T08:21:26.079Z,18.93
2018-11-13T08:23:54.245Z,17.92
2018-11-13T08:26:22.231Z,17.43
2018-11-13T08:28:50.155Z,16.96
2018-11-13T08:31:18.046Z,16.84
2018-11-13T08:33:45.944Z,16.66
2018-11-13T08:36:13.851Z,16.60
2018-11-13T08:38:41.747Z,16.57
2018-11-13T08:41:09.834Z,16.42
2018-11-13T08:43:37.758Z,16.51
2018-11-13T08:46:05.830Z,16.30
2018-11-13T08:48:34.124Z,16.36
2018-11-13T08:51:02.099Z,16.34
2018-11-13T08:53:30.051Z,16.33
2018-11-13T08:55:57.987Z,16.32
2018-11-13T08:58:25.925Z,16.34
2018-11-13T09:00:53.914Z,16.30
2018-11-13T09:03:21.833Z,16.19
2018-11-13T09:05:49.755Z,16.16
2018-11-13T09:08:17.748Z,16.08
2018-11-13T09:10:45.679Z,16.09
2018-11-13T09:13:13.588Z,16.14
2018-11-13T09:15:41.535Z,15.95
2018-11-13T09:18:09.500Z,15.95
2018-11-13T09:20:37.422Z,16.20
2018-11-13T09:23:05.345Z,16.16
2018-11-13T09:25:33.339Z,16.01
2018-11-13T09:28:01.248Z,16.03
2018-11-13T09:30:29.510Z,16.03
2018-11-13T09:32:57.178Z,16.09
2018-11-13T09:35:25.080Z,16.17
2018-11-13T09:37:52.987Z,16.34
2018-11-13T09:40:21.459Z,16.63
2018-11-13T09:42:50.747Z,17.56
2018-11-13T09:45:18.958Z,18.41
2018-11-13T09:47:46.863Z,18.47
2018-11-13T09:50:16.195Z,17.82
2018-11-13T09:52:45.497Z,17.60
2018-11-13T09:55:14.780Z,17.41
2018-11-13T09:57:43.321Z,17.13
2018-11-13T10:00:19.404Z,16.89
2018-11-13T10:02:48.977Z,17.39
2018-11-13T10:05:17.603Z,18.47
2018-11-13T10:07:46.004Z,18.95
2018-11-13T10:10:14.001Z,18.89
2018-11-13T10:12:41.901Z,18.79
2018-11-13T10:15:13.383Z,18.46
2018-11-13T10:17:41.379Z,17.85
2018-11-13T10:20:10.776Z,17.60
2018-11-13T10:22:38.786Z,17.67
2018-11-13T10:25:07.608Z,17.67
2018-11-13T10:27:35.647Z,18.02
2018-11-13T10:30:03.912Z,18.51
2018-11-13T10:32:31.864Z,19.06
2018-11-13T10:34:59.832Z,18.71
2018-11-13T10:37:27.772Z,19.28
2018-11-13T10:39:55.825Z,18.55
2018-11-13T10:42:23.747Z,17.91
2018-11-13T10:44:51.692Z,17.66
2018-11-13T10:47:19.660Z,17.62
2018-11-13T10:49:47.620Z,17.36
2018-11-13T10:52:15.588Z,16.96
2018-11-13T10:54:43.538Z,16.73
2018-11-13T10:57:11.448Z,16.33
2018-11-13T10:59:39.428Z,15.86
2018-11-13T11:02:12.541Z,15.77
2018-11-13T11:04:41.241Z,15.51
2018-11-13T11:07:09.225Z,15.24
2018-11-13T11:09:37.538Z,15.15
2018-11-13T11:12:06.047Z,15.06
2018-11-13T11:14:33.979Z,15.14
2018-11-13T11:17:02.132Z,15.34
2018-11-13T11:19:30.991Z,15.60
2018-11-13T11:21:58.937Z,15.91
2018-11-13T11:24:26.960Z,16.97
2018-11-13T11:26:55.012Z,16.36
2018-11-13T11:29:23.006Z,16.36
2018-11-13T11:31:50.927Z,16.45
2018-11-13T11:34:18.840Z,16.49
2018-11-13T11:36:46.818Z,16.37
2018-11-13T11:39:14.810Z,16.71
2018-11-13T11:41:42.741Z,17.76
2018-11-13T11:44:10.862Z,17.63
2018-11-13T11:46:39.287Z,17.66
2018-11-13T11:49:07.223Z,17.04
2018-11-13T11:51:36.161Z,17.01
2018-11-13T11:54:05.212Z,16.31
2018-11-13T11:56:33.223Z,16.07
2018-11-13T11:59:01.403Z,16.00
2018-11-13T12:01:29.469Z,15.82
2018-11-13T12:03:57.371Z,15.65
2018-11-13T12:06:25.341Z,15.97
2018-11-13T12:08:54.155Z,16.13
2018-11-13T12:11:22.089Z,16.74
2018-11-13T12:13:50.003Z,16.71
2018-11-13T12:16:18.044Z,16.53
2018-11-13T12:18:46.039Z,16.53
2018-11-13T12:21:14.052Z,16.38
2018-11-13T12:23:42.661Z,16.46
2018-11-13T12:26:10.571Z,16.51
2018-11-13T12:28:38.508Z,16.52
2018-11-13T12:31:06.552Z,16.59
2018-11-13T12:33:34.524Z,16.51
2018-11-13T12:36:02.679Z,17.04
2018-11-13T12:38:30.671Z,17.14
2018-11-13T12:40:58.654Z,17.24
2018-11-13T12:43:26.607Z,17.07
2018-11-13T12:45:54.535Z,17.30
2018-11-13T12:48:22.564Z,17.42
2018-11-13T12:50:55.880Z,17.28
2018-11-13T12:53:23.835Z,17.12
2018-11-13T12:55:51.878Z,16.94
2018-11-13T12:58:19.695Z,17.02
2018-11-13T13:00:47.744Z,16.99
2018-11-13T13:03:15.737Z,16.99
2018-11-13T13:05:43.683Z,16.94
2018-11-13T13:08:11.600Z,16.65
2018-11-13T13:10:39.567Z,16.61
2018-11-13T13:13:07.507Z,16.86
2018-11-13T13:15:35.420Z,16.86
2018-11-13T13:18:03.387Z,17.18
2018-11-13T13:20:31.308Z,17.14
2018-11-13T13:22:59.253Z,17.00
2018-11-13T13:25:27.179Z,16.77
2018-11-13T13:27:55.303Z,16.72
2018-11-13T13:30:24.424Z,16.78
2018-11-13T13:32:52.524Z,17.10
2018-11-13T13:35:39.671Z,17.11
2018-11-13T13:38:08.451Z,17.13
2018-11-13T13:40:37.215Z,17.27
2018-11-13T13:43:05.536Z,17.32
2018-11-13T13:45:33.676Z,17.40
2018-11-13T13:48:01.648Z,17.06
2018-11-13T13:50:29.568Z,17.22
2018-11-13T13:52:57.570Z,17.19
2018-11-13T13:55:27.122Z,17.06
2018-11-13T13:57:55.244Z,17.02
2018-11-13T14:00:23.304Z,16.79
2018-11-13T14:02:52.001Z,16.49
2018-11-13T14:05:20.595Z,16.26
2018-11-13T14:07:48.568Z,16.30
2018-11-13T14:10:16.596Z,16.20
2018-11-13T14:12:44.584Z,15.95
2018-11-13T14:15:13.467Z,15.96
2018-11-13T14:17:41.789Z,15.99
2018-11-13T14:20:14.845Z,16.27
2018-11-13T14:22:42.850Z,16.33
2018-11-13T14:25:11.608Z,16.38
2018-11-13T14:27:39.899Z,16.34
2018-11-13T14:30:15.836Z,16.34
2018-11-13T14:32:44.430Z,16.12
2018-11-13T14:35:12.376Z,16.12
2018-11-13T14:37:40.334Z,15.99
2018-11-13T14:40:13.431Z,15.89
2018-11-13T14:42:41.415Z,15.77
2018-11-13T14:45:09.756Z,15.79
2018-11-13T14:47:37.732Z,15.89
2018-11-13T14:50:08.300Z,15.99
2018-11-13T14:52:36.216Z,16.12
2018-11-13T14:55:04.316Z,16.14
2018-11-13T14:57:32.279Z,16.09
2018-11-13T15:00:00.204Z,16.08
2018-11-13T15:02:28.137Z,16.28
2018-11-13T15:04:56.078Z,16.28
2018-11-13T15:07:24.039Z,16.34
2018-11-13T15:09:51.996Z,16.17
2018-11-13T15:12:19.915Z,16.25
2018-11-13T15:14:47.900Z,16.41
2018-11-13T15:17:15.808Z,16.30
2018-11-13T15:19:44.313Z,15.99
2018-11-13T15:22:12.285Z,15.83
2018-11-13T15:24:40.390Z,15.78
2018-11-13T15:27:08.437Z,15.81
2018-11-13T15:29:36.495Z,15.68
2018-11-13T15:32:04.479Z,15.66
2018-11-13T15:34:32.628Z,15.63
2018-11-13T15:37:00.616Z,15.57
2018-11-13T15:39:28.586Z,15.42
2018-11-13T15:41:56.540Z,15.32
2018-11-13T15:44:24.559Z,15.23
2018-11-13T15:46:52.459Z,15.15
2018-11-13T15:49:20.488Z,15.08
2018-11-13T15:51:48.549Z,15.02
2018-11-13T15:54:16.500Z,15.06
2018-11-13T15:56:44.467Z,14.98
2018-11-13T15:59:12.621Z,15.01
2018-11-13T16:01:40.458Z,14.99
2018-11-13T16:04:08.425Z,14.88
2018-11-13T16:06:36.489Z,14.88
2018-11-13T16:09:10.262Z,14.78
2018-11-13T16:11:38.476Z,14.73
2018-11-13T16:14:06.504Z,14.78
2018-11-13T16:16:34.475Z,14.80
2018-11-13T16:19:02.408Z,14.71
2018-11-13T16:21:30.538Z,14.63
2018-11-13T16:23:58.500Z,14.57
2018-11-13T16:26:26.484Z,14.49
2018-11-13T16:28:54.436Z,14.43
2018-11-13T16:31:22.524Z,14.35
2018-11-13T16:33:50.496Z,14.35
2018-11-13T16:36:18.478Z,14.25
2018-11-13T16:38:46.473Z,14.12
2018-11-13T16:41:14.593Z,14.09
2018-11-13T16:43:42.456Z,14.05
2018-11-13T16:46:10.403Z,14.02
2018-11-13T16:48:38.752Z,13.93
2018-11-13T16:51:06.684Z,13.78
2018-11-13T16:53:40.082Z,13.87
2018-11-13T16:56:08.003Z,13.81
2018-11-13T16:58:36.081Z,13.72
2018-11-13T17:01:04.107Z,13.66
2018-11-13T17:03:32.048Z,13.48
2018-11-13T17:06:00.038Z,13.49
2018-11-13T17:08:27.975Z,13.48
2018-11-13T17:10:55.936Z,13.54
2018-11-13T17:13:23.879Z,13.61
2018-11-13T17:15:51.836Z,13.69
2018-11-13T17:18:19.823Z,13.71
2018-11-13T17:20:47.776Z,13.73
2018-11-13T17:23:15.709Z,13.60
2018-11-13T17:25:43.679Z,13.53
2018-11-13T17:28:11.617Z,13.43
2018-11-13T17:30:39.559Z,13.42
2018-11-13T17:33:08.799Z,13.48
2018-11-13T17:35:36.989Z,13.39
2018-11-13T17:38:05.191Z,13.25
2018-11-13T17:40:34.389Z,13.32
2018-11-13T17:43:03.582Z,13.31
2018-11-13T17:45:32.920Z,13.23
2018-11-13T17:48:00.995Z,13.20
2018-11-13T17:50:31.435Z,13.32
2018-11-13T17:52:59.427Z,13.17
2018-11-13T17:55:27.404Z,13.14
2018-11-13T17:57:56.904Z,13.19
2018-11-13T18:00:28.112Z,13.25
2018-11-13T18:02:56.080Z,13.20
2018-11-13T18:05:25.001Z,13.14
2018-11-13T18:07:53.580Z,13.15
2018-11-13T18:10:21.779Z,13.19
2018-11-13T18:12:49.750Z,13.12
2018-11-13T18:15:19.600Z,13.03
2018-11-13T18:17:47.845Z,13.01
2018-11-13T18:20:19.063Z,12.89
2018-11-13T18:22:47.280Z,12.85
2018-11-13T18:25:15.219Z,12.71
2018-11-13T18:27:51.038Z,12.65
2018-11-13T18:30:23.951Z,12.57
2018-11-13T18:32:52.361Z,12.48
2018-11-13T18:35:22.447Z,12.42
2018-11-13T18:37:51.044Z,12.33
2018-11-13T18:40:19.838Z,12.27
2018-11-13T18:42:48.930Z,12.27
2018-11-13T18:45:19.379Z,12.16
2018-11-13T18:47:47.404Z,12.12
2018-11-13T18:50:17.051Z,12.08
2018-11-13T18:52:44.969Z,12.07
2018-11-13T18:55:13.478Z,12.03
2018-11-13T18:57:41.923Z,11.93
2018-11-13T19:00:17.135Z,11.91
2018-11-13T19:02:47.063Z,11.86
2018-11-13T19:05:15.579Z,11.81
2018-11-13T19:07:43.919Z,11.72
2018-11-13T19:10:17.716Z,11.71
2018-11-13T19:12:46.257Z,11.64
2018-11-13T19:15:15.315Z,11.64
2018-11-13T19:17:43.593Z,11.63
2018-11-13T19:20:15.060Z,11.55
2018-11-13T19:22:43.060Z,11.52
2018-11-13T19:25:14.088Z,11.49
2018-11-13T19:27:42.732Z,11.42
2018-11-13T19:30:11.764Z,11.39
2018-11-13T19:32:39.613Z,11.35
2018-11-13T19:35:07.653Z,11.30
2018-11-13T19:37:36.062Z,11.26
2018-11-13T19:40:04.150Z,11.23
2018-11-13T19:42:32.103Z,11.18
2018-11-13T19:45:00.151Z,11.14
2018-11-13T19:47:28.148Z,11.09
2018-11-13T19:49:56.172Z,11.13
2018-11-13T19:52:24.108Z,11.13
2018-11-13T19:54:52.084Z,11.09
2018-11-13T19:57:20.068Z,11.09
2018-11-13T19:59:48.028Z,11.12
2018-11-13T20:02:15.983Z,11.13
2018-11-13T20:04:44.047Z,11.18
2018-11-13T20:07:11.944Z,11.16
2018-11-13T20:09:39.891Z,11.15
2018-11-13T20:12:07.875Z,11.20
2018-11-13T20:14:35.835Z,11.16
2018-11-13T20:17:03.767Z,11.20
2018-11-13T20:19:31.755Z,11.17
2018-11-13T20:21:59.706Z,11.14
2018-11-13T20:24:27.636Z,11.07
2018-11-13T20:26:55.560Z,11.01
2018-11-13T20:29:23.673Z,10.97
2018-11-13T20:31:51.615Z,10.90
2018-11-13T20:34:19.549Z,10.91
2018-11-13T20:36:47.495Z,10.88
2018-11-13T20:39:15.419Z,10.89
2018-11-13T20:41:43.373Z,10.79
2018-11-13T20:44:11.306Z,10.79
2018-11-13T20:46:39.260Z,10.74
2018-11-13T20:49:07.184Z,10.71
2018-11-13T20:51:35.188Z,10.70
2018-11-13T20:54:03.060Z,10.68
2018-11-13T20:56:31.003Z,10.64
2018-11-13T20:58:58.951Z,10.61
2018-11-13T21:01:26.890Z,10.60
2018-11-13T21:03:55.489Z,10.56
2018-11-13T21:06:23.424Z,10.53
2018-11-13T21:11:32.385Z,10.39
2018-11-13T21:14:00.341Z,10.34
2018-11-13T21:16:28.361Z,10.30
2018-11-13T21:18:56.323Z,10.25
2018-11-13T21:21:24.289Z,10.20
2018-11-13T21:23:52.297Z,10.14
2018-11-13T21:26:20.268Z,10.09
2018-11-13T21:28:48.466Z,10.05
2018-11-13T21:31:16.551Z,10.02
2018-11-13T21:33:44.732Z,10.01
2018-11-13T21:36:12.684Z,9.97
2018-11-13T21:38:40.671Z,9.94
2018-11-13T21:41:08.602Z,9.90
2018-11-13T21:43:36.636Z,9.88
2018-11-13T21:46:04.632Z,9.87
2018-11-13T21:48:32.765Z,9.83
2018-11-13T21:51:00.754Z,9.88
2018-11-13T21:53:28.748Z,9.88
2018-11-13T21:55:56.769Z,9.87
2018-11-13T21:58:24.813Z,9.84
2018-11-13T22:00:52.821Z,9.80
2018-11-13T22:03:20.779Z,9.79
2018-11-13T22:05:48.725Z,9.72
2018-11-13T22:08:18.530Z,9.75
2018-11-13T22:10:46.480Z,9.75
2018-11-13T22:13:14.453Z,9.74
2018-11-13T22:15:42.411Z,9.75
2018-11-13T22:18:10.335Z,9.72
2018-11-13T22:20:43.618Z,9.72
2018-11-13T22:23:06.447Z,9.70
2018-11-13T22:25:34.428Z,9.62
2018-11-13T22:28:02.664Z,9.62
2018-11-13T22:30:32.595Z,9.62
2018-11-13T22:33:00.628Z,9.63
2018-11-13T22:35:28.622Z,9.67
2018-11-13T22:37:56.682Z,9.66
2018-11-13T22:40:26.220Z,9.66
2018-11-13T22:42:54.363Z,9.67
2018-11-13T22:45:24.772Z,9.66
2018-11-13T22:47:52.913Z,9.67
2018-11-13T22:50:22.356Z,9.67
2018-11-13T22:52:50.647Z,9.64
2018-11-13T22:55:20.588Z,9.63
2018-11-13T22:57:49.501Z,9.59
2018-11-13T23:00:18.645Z,9.59
2018-11-13T23:02:47.709Z,9.60
2018-11-13T23:05:15.603Z,9.59
2018-11-13T23:07:43.544Z,9.60
2018-11-13T23:10:12.751Z,9.60
2018-11-13T23:12:41.443Z,9.61
2018-11-13T23:15:12.024Z,9.63
2018-11-13T23:17:40.559Z,9.66
2018-11-13T23:20:12.025Z,9.62
2018-11-13T23:22:40.185Z,9.61
2018-11-13T23:25:09.873Z,9.57
2018-11-13T23:27:37.868Z,9.56
2018-11-13T23:30:09.377Z,9.53
2018-11-13T23:32:37.374Z,9.51
2018-11-13T23:35:05.924Z,9.48
2018-11-13T23:37:33.624Z,9.44
2018-11-13T23:40:01.535Z,9.40
2018-11-13T23:42:29.487Z,9.41
2018-11-13T23:44:57.441Z,9.38
2018-11-13T23:47:25.404Z,9.38
2018-11-13T23:49:53.368Z,9.37
2018-11-13T23:52:21.312Z,9.33
2018-11-13T23:54:49.315Z,9.30
2018-11-13T23:57:17.243Z,9.24
2018-11-13T23:59:45.235Z,9.22
